sensor_id;sensor_type;location;lat;lon;timestamp;pressure;altitude;pressure_sealevel;temperature;humidity
62849;BME280;48941;49.516;8.286;2022-12-18T00:00:03;101759.56;;;-6.36;97.50
62849;BME280;48941;49.516;8.286;2022-12-18T00:02:31;101750.91;;;-6.38;97.40
62849;BME280;48941;49.516;8.286;2022-12-18T00:04:59;101752.66;;;-6.34;97.35
62849;BME280;48941;49.516;8.286;2022-12-18T00:07:28;101744.88;;;-6.35;97.74
62849;BME280;48941;49.516;8.286;2022-12-18T00:09:56;101737.97;;;-6.35;97.83
62849;BME280;48941;49.516;8.286;2022-12-18T00:12:24;101737.91;;;-6.39;97.52
62849;BME280;48941;49.516;8.286;2022-12-18T00:14:51;101743.06;;;-6.41;97.38
62849;BME280;48941;49.516;8.286;2022-12-18T00:17:19;101749.22;;;-6.34;97.19
62849;BME280;48941;49.516;8.286;2022-12-18T00:19:47;101747.47;;;-6.37;97.18
62849;BME280;48941;49.516;8.286;2022-12-18T00:22:15;101736.25;;;-6.34;97.18
62849;BME280;48941;49.516;8.286;2022-12-18T00:24:47;101733.59;;;-6.39;97.56
62849;BME280;48941;49.516;8.286;2022-12-18T00:27:14;101747.47;;;-6.35;97.81
62849;BME280;48941;49.516;8.286;2022-12-18T00:29:42;101738.88;;;-6.33;98.06
62849;BME280;48941;49.516;8.286;2022-12-18T00:32:10;101746.66;;;-6.33;98.22
62849;BME280;48941;49.516;8.286;2022-12-18T00:34:38;101752.72;;;-6.31;98.32
62849;BME280;48941;49.516;8.286;2022-12-18T00:37:06;101747.53;;;-6.31;97.95
62849;BME280;48941;49.516;8.286;2022-12-18T00:39:33;101753.53;;;-6.33;97.49
62849;BME280;48941;49.516;8.286;2022-12-18T00:42:03;101764.84;;;-6.27;97.60
62849;BME280;48941;49.516;8.286;2022-12-18T00:44:44;101767.38;;;-6.31;97.25
62849;BME280;48941;49.516;8.286;2022-12-18T00:47:12;101753.53;;;-6.33;98.03
62849;BME280;48941;49.516;8.286;2022-12-18T00:49:40;101751.78;;;-6.36;98.35
62849;BME280;48941;49.516;8.286;2022-12-18T00:52:08;101764.69;;;-6.42;98.74
62849;BME280;48941;49.516;8.286;2022-12-18T00:54:36;101769.88;;;-6.41;99.06
62849;BME280;48941;49.516;8.286;2022-12-18T00:57:05;101762.09;;;-6.42;98.86
62849;BME280;48941;49.516;8.286;2022-12-18T00:59:33;101753.38;;;-6.49;99.20
62849;BME280;48941;49.516;8.286;2022-12-18T01:02:01;101750.78;;;-6.49;99.59
62849;BME280;48941;49.516;8.286;2022-12-18T01:04:30;101748.19;;;-6.49;99.80
62849;BME280;48941;49.516;8.286;2022-12-18T01:06:58;101757.75;;;-6.42;99.89
62849;BME280;48941;49.516;8.286;2022-12-18T01:09:26;101749.25;;;-6.33;99.85
62849;BME280;48941;49.516;8.286;2022-12-18T01:11:54;101747.38;;;-6.42;99.47
62849;BME280;48941;49.516;8.286;2022-12-18T01:14:24;101748.97;;;-6.54;98.76
62849;BME280;48941;49.516;8.286;2022-12-18T01:16:51;101748.13;;;-6.55;98.98
62849;BME280;48941;49.516;8.286;2022-12-18T01:19:19;101744.59;;;-6.60;98.88
62849;BME280;48941;49.516;8.286;2022-12-18T01:21:47;101750.59;;;-6.61;98.89
62849;BME280;48941;49.516;8.286;2022-12-18T01:24:15;101754.88;;;-6.66;99.39
62849;BME280;48941;49.516;8.286;2022-12-18T01:26:43;101776.53;;;-6.61;99.59
62849;BME280;48941;49.516;8.286;2022-12-18T01:29:11;101773.97;;;-6.59;99.71
62849;BME280;48941;49.516;8.286;2022-12-18T01:31:40;101759.28;;;-6.61;99.67
62849;BME280;48941;49.516;8.286;2022-12-18T01:34:09;101749.72;;;-6.65;100.00
62849;BME280;48941;49.516;8.286;2022-12-18T01:36:38;101748.00;;;-6.61;100.00
62849;BME280;48941;49.516;8.286;2022-12-18T01:39:08;101751.50;;;-6.59;100.00
62849;BME280;48941;49.516;8.286;2022-12-18T01:41:37;101754.09;;;-6.61;99.79
62849;BME280;48941;49.516;8.286;2022-12-18T01:44:50;101756.59;;;-6.68;100.00
62849;BME280;48941;49.516;8.286;2022-12-18T01:47:23;101756.56;;;-6.70;100.00
62849;BME280;48941;49.516;8.286;2022-12-18T01:49:53;101760.84;;;-6.72;100.00
62849;BME280;48941;49.516;8.286;2022-12-18T01:52:24;101771.22;;;-6.72;100.00
62849;BME280;48941;49.516;8.286;2022-12-18T01:54:53;101784.28;;;-6.64;99.99
62849;BME280;48941;49.516;8.286;2022-12-18T01:57:23;101776.50;;;-6.64;99.47
62849;BME280;48941;49.516;8.286;2022-12-18T01:59:53;101756.50;;;-6.74;98.97
62849;BME280;48941;49.516;8.286;2022-12-18T02:02:26;101758.25;;;-6.75;99.14
62849;BME280;48941;49.516;8.286;2022-12-18T02:04:55;101765.13;;;-6.75;99.40
62849;BME280;48941;49.516;8.286;2022-12-18T02:07:28;101769.47;;;-6.74;99.09
62849;BME280;48941;49.516;8.286;2022-12-18T02:10:01;101781.59;;;-6.72;98.91
62849;BME280;48941;49.516;8.286;2022-12-18T02:12:36;101784.06;;;-6.79;98.71
62849;BME280;48941;49.516;8.286;2022-12-18T02:15:13;101786.63;;;-6.83;99.56
62849;BME280;48941;49.516;8.286;2022-12-18T02:17:48;101781.38;;;-6.87;100.00
62849;BME280;48941;49.516;8.286;2022-12-18T02:20:23;101774.56;;;-6.79;100.00
62849;BME280;48941;49.516;8.286;2022-12-18T02:23:04;101775.50;;;-6.74;100.00
62849;BME280;48941;49.516;8.286;2022-12-18T02:28:46;101774.75;;;-6.65;100.00
62849;BME280;48941;49.516;8.286;2022-12-18T02:31:21;101768.69;;;-6.69;100.00
62849;BME280;48941;49.516;8.286;2022-12-18T02:33:53;101773.84;;;-6.70;100.00
62849;BME280;48941;49.516;8.286;2022-12-18T02:36:26;101775.66;;;-6.65;99.72
62849;BME280;48941;49.516;8.286;2022-12-18T02:38:56;101762.59;;;-6.69;99.49
62849;BME280;48941;49.516;8.286;2022-12-18T02:41:26;101755.66;;;-6.73;98.97
62849;BME280;48941;49.516;8.286;2022-12-18T02:44:01;101755.47;;;-6.87;99.70
62849;BME280;48941;49.516;8.286;2022-12-18T02:46:32;101756.31;;;-6.90;99.77
62849;BME280;48941;49.516;8.286;2022-12-18T02:49:08;101749.28;;;-6.97;100.00
62849;BME280;48941;49.516;8.286;2022-12-18T02:51:45;101742.34;;;-6.99;100.00
62849;BME280;48941;49.516;8.286;2022-12-18T02:54:23;101751.88;;;-6.97;100.00
62849;BME280;48941;49.516;8.286;2022-12-18T02:56:55;101763.13;;;-6.96;100.00
62849;BME280;48941;49.516;8.286;2022-12-18T02:59:30;101761.44;;;-6.91;100.00
62849;BME280;48941;49.516;8.286;2022-12-18T03:02:06;101757.13;;;-6.94;99.97
62849;BME280;48941;49.516;8.286;2022-12-18T03:04:40;101764.81;;;-6.97;100.00
62849;BME280;48941;49.516;8.286;2022-12-18T03:07:16;101752.75;;;-6.95;100.00
62849;BME280;48941;49.516;8.286;2022-12-18T03:09:49;101745.88;;;-6.94;99.78
62849;BME280;48941;49.516;8.286;2022-12-18T03:12:20;101713.81;;;-7.01;99.87
62849;BME280;48941;49.516;8.286;2022-12-18T03:14:57;101717.31;;;-7.01;99.93
62849;BME280;48941;49.516;8.286;2022-12-18T03:17:28;101740.53;;;-7.07;100.00
62849;BME280;48941;49.516;8.286;2022-12-18T03:20:02;101754.44;;;-7.00;100.00
62849;BME280;48941;49.516;8.286;2022-12-18T03:22:32;101752.69;;;-7.03;100.00
62849;BME280;48941;49.516;8.286;2022-12-18T03:25:03;101756.94;;;-7.06;100.00
62849;BME280;48941;49.516;8.286;2022-12-18T03:27:35;101760.28;;;-7.13;100.00
62849;BME280;48941;49.516;8.286;2022-12-18T03:30:08;101760.25;;;-7.15;100.00
62849;BME280;48941;49.516;8.286;2022-12-18T03:32:42;101762.91;;;-7.12;100.00
62849;BME280;48941;49.516;8.286;2022-12-18T03:35:12;101755.06;;;-7.16;100.00
62849;BME280;48941;49.516;8.286;2022-12-18T03:37:46;101747.22;;;-7.21;100.00
62849;BME280;48941;49.516;8.286;2022-12-18T03:40:14;101756.75;;;-7.20;100.00
62849;BME280;48941;49.516;8.286;2022-12-18T03:42:46;101753.38;;;-7.13;100.00
62849;BME280;48941;49.516;8.286;2022-12-18T03:45:23;101749.16;;;-7.08;100.00
62849;BME280;48941;49.516;8.286;2022-12-18T03:47:59;101750.19;;;-6.96;100.00
62849;BME280;48941;49.516;8.286;2022-12-18T03:50:36;101746.63;;;-7.05;100.00
62849;BME280;48941;49.516;8.286;2022-12-18T03:53:14;101752.63;;;-7.06;100.00
62849;BME280;48941;49.516;8.286;2022-12-18T03:55:45;101749.97;;;-7.12;100.00
62849;BME280;48941;49.516;8.286;2022-12-18T03:58:17;101755.22;;;-7.06;100.00
62849;BME280;48941;49.516;8.286;2022-12-18T04:00:49;101765.75;;;-6.93;100.00
62849;BME280;48941;49.516;8.286;2022-12-18T04:03:20;101756.28;;;-6.93;100.00
62849;BME280;48941;49.516;8.286;2022-12-18T04:06:03;101753.56;;;-6.99;100.00
62849;BME280;48941;49.516;8.286;2022-12-18T04:08:33;101755.41;;;-6.92;100.00
62849;BME280;48941;49.516;8.286;2022-12-18T04:11:03;101754.41;;;-7.02;100.00
62849;BME280;48941;49.516;8.286;2022-12-18T04:13:33;101758.81;;;-6.96;100.00
62849;BME280;48941;49.516;8.286;2022-12-18T04:16:03;101754.47;;;-6.97;100.00
62849;BME280;48941;49.516;8.286;2022-12-18T04:18:31;101752.72;;;-6.99;100.00
62849;BME280;48941;49.516;8.286;2022-12-18T04:20:59;101751.88;;;-6.98;100.00
62849;BME280;48941;49.516;8.286;2022-12-18T04:23:27;101743.25;;;-6.97;100.00
62849;BME280;48941;49.516;8.286;2022-12-18T04:25:55;101750.16;;;-6.95;100.00
62849;BME280;48941;49.516;8.286;2022-12-18T04:28:23;101738.16;;;-6.90;100.00
62849;BME280;48941;49.516;8.286;2022-12-18T04:30:51;101743.41;;;-6.85;100.00
62849;BME280;48941;49.516;8.286;2022-12-18T04:33:20;101745.06;;;-6.90;99.83
62849;BME280;48941;49.516;8.286;2022-12-18T04:35:48;101747.56;;;-6.98;99.90
62849;BME280;48941;49.516;8.286;2022-12-18T04:38:16;101747.53;;;-6.99;99.90
62849;BME280;48941;49.516;8.286;2022-12-18T04:40:44;101737.28;;;-6.92;99.93
62849;BME280;48941;49.516;8.286;2022-12-18T04:43:12;101745.91;;;-6.93;99.79
62849;BME280;48941;49.516;8.286;2022-12-18T04:45:40;101738.97;;;-6.94;99.83
62849;BME280;48941;49.516;8.286;2022-12-18T04:48:07;101733.75;;;-6.98;99.90
62849;BME280;48941;49.516;8.286;2022-12-18T04:50:37;101740.63;;;-7.01;100.00
62849;BME280;48941;49.516;8.286;2022-12-18T04:53:06;101744.09;;;-6.97;100.00
62849;BME280;48941;49.516;8.286;2022-12-18T04:55:35;101752.78;;;-6.93;100.00
62849;BME280;48941;49.516;8.286;2022-12-18T04:58:04;101757.88;;;-7.03;100.00
62849;BME280;48941;49.516;8.286;2022-12-18T05:00:32;101760.44;;;-7.01;100.00
62849;BME280;48941;49.516;8.286;2022-12-18T05:03:00;101763.84;;;-7.05;100.00
62849;BME280;48941;49.516;8.286;2022-12-18T05:05:29;101761.28;;;-7.04;100.00
62849;BME280;48941;49.516;8.286;2022-12-18T05:07:58;101750.09;;;-7.03;100.00
62849;BME280;48941;49.516;8.286;2022-12-18T05:10:26;101759.66;;;-6.98;100.00
62849;BME280;48941;49.516;8.286;2022-12-18T05:13:01;101749.28;;;-6.98;100.00
62849;BME280;48941;49.516;8.286;2022-12-18T05:15:29;101753.50;;;-7.05;100.00
62849;BME280;48941;49.516;8.286;2022-12-18T05:17:58;101760.44;;;-7.01;100.00
62849;BME280;48941;49.516;8.286;2022-12-18T05:20:27;101755.28;;;-7.03;100.00
62849;BME280;48941;49.516;8.286;2022-12-18T05:22:55;101762.09;;;-7.08;100.00
62849;BME280;48941;49.516;8.286;2022-12-18T05:25:24;101760.38;;;-7.09;100.00
62849;BME280;48941;49.516;8.286;2022-12-18T05:27:52;101759.44;;;-7.12;100.00
62849;BME280;48941;49.516;8.286;2022-12-18T05:30:20;101762.84;;;-7.16;100.00
62849;BME280;48941;49.516;8.286;2022-12-18T05:32:48;101745.63;;;-7.14;100.00
62849;BME280;48941;49.516;8.286;2022-12-18T05:35:17;101741.28;;;-7.14;100.00
62849;BME280;48941;49.516;8.286;2022-12-18T05:37:45;101739.59;;;-7.12;100.00
62849;BME280;48941;49.516;8.286;2022-12-18T05:40:12;101752.69;;;-7.01;100.00
62849;BME280;48941;49.516;8.286;2022-12-18T05:42:42;101762.16;;;-7.05;100.00
62849;BME280;48941;49.516;8.286;2022-12-18T05:45:10;101756.16;;;-7.01;100.00
62849;BME280;48941;49.516;8.286;2022-12-18T05:47:37;101755.38;;;-6.93;100.00
62849;BME280;48941;49.516;8.286;2022-12-18T05:50:07;101757.16;;;-6.91;100.00
62849;BME280;48941;49.516;8.286;2022-12-18T05:52:35;101752.84;;;-6.90;100.00
62849;BME280;48941;49.516;8.286;2022-12-18T05:55:03;101753.69;;;-6.93;99.63
62849;BME280;48941;49.516;8.286;2022-12-18T05:57:31;101753.63;;;-6.96;99.83
62849;BME280;48941;49.516;8.286;2022-12-18T06:00:00;101754.47;;;-6.97;99.72
62849;BME280;48941;49.516;8.286;2022-12-18T06:02:28;101761.31;;;-7.02;99.85
62849;BME280;48941;49.516;8.286;2022-12-18T06:04:56;101762.19;;;-7.02;99.73
62849;BME280;48941;49.516;8.286;2022-12-18T06:07:23;101766.44;;;-7.05;99.94
62849;BME280;48941;49.516;8.286;2022-12-18T06:09:51;101768.16;;;-7.06;100.00
62849;BME280;48941;49.516;8.286;2022-12-18T06:12:19;101763.78;;;-7.10;100.00
62849;BME280;48941;49.516;8.286;2022-12-18T06:14:47;101764.72;;;-7.06;100.00
62849;BME280;48941;49.516;8.286;2022-12-18T06:17:16;101771.63;;;-7.05;100.00
62849;BME280;48941;49.516;8.286;2022-12-18T06:19:44;101773.34;;;-7.06;100.00
62849;BME280;48941;49.516;8.286;2022-12-18T06:22:12;101780.28;;;-7.05;100.00
62849;BME280;48941;49.516;8.286;2022-12-18T06:24:40;101784.66;;;-7.01;100.00
62849;BME280;48941;49.516;8.286;2022-12-18T06:27:08;101782.94;;;-7.00;100.00
62849;BME280;48941;49.516;8.286;2022-12-18T06:29:36;101776.84;;;-7.02;100.00
62849;BME280;48941;49.516;8.286;2022-12-18T06:32:04;101789.84;;;-6.99;100.00
62849;BME280;48941;49.516;8.286;2022-12-18T06:34:33;101785.53;;;-6.97;100.00
62849;BME280;48941;49.516;8.286;2022-12-18T06:37:01;101778.78;;;-6.87;100.00
62849;BME280;48941;49.516;8.286;2022-12-18T06:39:29;101781.38;;;-6.87;99.69
62849;BME280;48941;49.516;8.286;2022-12-18T06:41:57;101789.09;;;-6.92;99.49
62849;BME280;48941;49.516;8.286;2022-12-18T06:44:25;101789.94;;;-6.91;99.63
62849;BME280;48941;49.516;8.286;2022-12-18T06:46:53;101798.63;;;-6.91;99.78
62849;BME280;48941;49.516;8.286;2022-12-18T06:49:21;101808.88;;;-6.95;99.38
62849;BME280;48941;49.516;8.286;2022-12-18T06:51:57;101806.34;;;-6.92;99.91
62849;BME280;48941;49.516;8.286;2022-12-18T06:54:25;101805.56;;;-6.85;99.66
62849;BME280;48941;49.516;8.286;2022-12-18T06:56:52;101799.59;;;-6.83;99.32
62849;BME280;48941;49.516;8.286;2022-12-18T06:59:22;101807.25;;;-6.90;99.28
62849;BME280;48941;49.516;8.286;2022-12-18T07:01:51;101800.34;;;-6.90;99.47
62849;BME280;48941;49.516;8.286;2022-12-18T07:04:19;101808.97;;;-6.89;99.34
62849;BME280;48941;49.516;8.286;2022-12-18T07:06:47;101800.31;;;-6.91;99.43
62849;BME280;48941;49.516;8.286;2022-12-18T07:09:16;101796.03;;;-6.89;99.47
62849;BME280;48941;49.516;8.286;2022-12-18T07:11:44;101796.84;;;-6.92;99.35
62849;BME280;48941;49.516;8.286;2022-12-18T07:14:12;101801.97;;;-6.95;99.27
62849;BME280;48941;49.516;8.286;2022-12-18T07:16:39;101797.72;;;-6.93;99.31
62849;BME280;48941;49.516;8.286;2022-12-18T07:19:07;101808.88;;;-6.95;99.35
62849;BME280;48941;49.516;8.286;2022-12-18T07:21:35;101804.56;;;-6.96;99.64
62849;BME280;48941;49.516;8.286;2022-12-18T07:24:04;101806.38;;;-6.91;99.63
62849;BME280;48941;49.516;8.286;2022-12-18T07:26:33;101802.06;;;-6.90;99.68
62849;BME280;48941;49.516;8.286;2022-12-18T07:29:01;101800.19;;;-7.01;99.71
62849;BME280;48941;49.516;8.286;2022-12-18T07:31:29;101814.84;;;-7.01;100.00
62849;BME280;48941;49.516;8.286;2022-12-18T07:33:57;101817.44;;;-7.01;100.00
62849;BME280;48941;49.516;8.286;2022-12-18T07:36:25;101823.44;;;-7.04;100.00
62849;BME280;48941;49.516;8.286;2022-12-18T07:38:52;101827.00;;;-6.97;100.00
62849;BME280;48941;49.516;8.286;2022-12-18T07:41:20;101822.72;;;-6.93;100.00
62849;BME280;48941;49.516;8.286;2022-12-18T07:43:50;101819.28;;;-6.94;99.83
62849;BME280;48941;49.516;8.286;2022-12-18T07:46:18;101828.97;;;-6.81;99.81
62849;BME280;48941;49.516;8.286;2022-12-18T07:48:46;101832.56;;;-6.72;99.09
62849;BME280;48941;49.516;8.286;2022-12-18T07:51:16;101835.19;;;-6.68;98.41
62849;BME280;48941;49.516;8.286;2022-12-18T07:53:44;101837.59;;;-6.82;98.14
62849;BME280;48941;49.516;8.286;2022-12-18T07:56:14;101830.53;;;-6.92;98.33
62849;BME280;48941;49.516;8.286;2022-12-18T07:58:54;101844.31;;;-6.94;98.39
62849;BME280;48941;49.516;8.286;2022-12-18T08:01:23;101840.06;;;-6.91;98.41
62849;BME280;48941;49.516;8.286;2022-12-18T08:03:51;101836.59;;;-6.91;98.52
62849;BME280;48941;49.516;8.286;2022-12-18T08:06:19;101843.47;;;-6.93;98.82
62849;BME280;48941;49.516;8.286;2022-12-18T08:08:50;101835.75;;;-6.90;98.53
62849;BME280;48941;49.516;8.286;2022-12-18T08:11:18;101837.63;;;-6.80;98.43
62849;BME280;48941;49.516;8.286;2022-12-18T08:13:47;101839.25;;;-6.87;98.54
62849;BME280;48941;49.516;8.286;2022-12-18T08:16:16;101842.81;;;-6.77;98.29
62849;BME280;48941;49.516;8.286;2022-12-18T08:18:46;101843.69;;;-6.78;98.18
62849;BME280;48941;49.516;8.286;2022-12-18T08:21:16;101846.38;;;-6.72;97.79
62849;BME280;48941;49.516;8.286;2022-12-18T08:23:47;101848.25;;;-6.62;98.01
62849;BME280;48941;49.516;8.286;2022-12-18T08:26:17;101844.72;;;-6.65;97.40
62849;BME280;48941;49.516;8.286;2022-12-18T08:28:46;101843.84;;;-6.69;97.50
62849;BME280;48941;49.516;8.286;2022-12-18T08:31:17;101841.16;;;-6.73;97.35
62849;BME280;48941;49.516;8.286;2022-12-18T08:33:45;101830.97;;;-6.63;97.48
62849;BME280;48941;49.516;8.286;2022-12-18T08:36:15;101819.81;;;-6.55;97.43
62849;BME280;48941;49.516;8.286;2022-12-18T08:38:43;101820.66;;;-6.56;96.81
62849;BME280;48941;49.516;8.286;2022-12-18T08:41:14;101822.41;;;-6.55;96.80
62849;BME280;48941;49.516;8.286;2022-12-18T08:43:43;101821.53;;;-6.56;97.29
62849;BME280;48941;49.516;8.286;2022-12-18T08:46:32;101817.28;;;-6.51;97.34
62849;BME280;48941;49.516;8.286;2022-12-18T08:49:02;101815.56;;;-6.50;96.93
62849;BME280;48941;49.516;8.286;2022-12-18T08:51:32;101805.16;;;-6.53;96.92
62849;BME280;48941;49.516;8.286;2022-12-18T08:54:00;101798.25;;;-6.53;97.39
62849;BME280;48941;49.516;8.286;2022-12-18T08:56:30;101804.34;;;-6.48;97.51
62849;BME280;48941;49.516;8.286;2022-12-18T08:58:57;101793.22;;;-6.39;96.82
62849;BME280;48941;49.516;8.286;2022-12-18T09:01:25;101792.31;;;-6.41;96.85
62849;BME280;48941;49.516;8.286;2022-12-18T09:03:55;101795.72;;;-6.48;96.86
62849;BME280;48941;49.516;8.286;2022-12-18T09:06:23;101795.66;;;-6.51;96.78
62849;BME280;48941;49.516;8.286;2022-12-18T09:08:53;101796.44;;;-6.58;96.64
62849;BME280;48941;49.516;8.286;2022-12-18T09:11:22;101798.25;;;-6.53;96.31
62849;BME280;48941;49.516;8.286;2022-12-18T09:13:51;101805.06;;;-6.59;96.61
62849;BME280;48941;49.516;8.286;2022-12-18T09:16:19;101813.88;;;-6.48;97.23
62849;BME280;48941;49.516;8.286;2022-12-18T09:18:52;101806.34;;;-6.27;96.92
62849;BME280;48941;49.516;8.286;2022-12-18T09:21:27;101806.47;;;-6.16;96.20
62849;BME280;48941;49.516;8.286;2022-12-18T09:23:55;101799.69;;;-6.05;95.77
62849;BME280;48941;49.516;8.286;2022-12-18T09:26:25;101803.16;;;-6.01;95.60
62849;BME280;48941;49.516;8.286;2022-12-18T09:28:53;101803.41;;;-5.73;95.20
62849;BME280;48941;49.516;8.286;2022-12-18T09:31:23;101801.06;;;-5.44;93.96
62849;BME280;48941;49.516;8.286;2022-12-18T09:33:51;101803.84;;;-5.24;92.36
62849;BME280;48941;49.516;8.286;2022-12-18T09:36:19;101816.84;;;-5.20;91.50
62849;BME280;48941;49.516;8.286;2022-12-18T09:38:48;101811.72;;;-5.10;90.17
62849;BME280;48941;49.516;8.286;2022-12-18T09:41:29;101821.38;;;-4.94;90.61
62849;BME280;48941;49.516;8.286;2022-12-18T09:44:01;101829.28;;;-4.77;89.33
62849;BME280;48941;49.516;8.286;2022-12-18T09:46:33;101837.13;;;-4.71;87.83
62849;BME280;48941;49.516;8.286;2022-12-18T09:49:14;101838.94;;;-4.54;87.35
62849;BME280;48941;49.516;8.286;2022-12-18T09:51:45;101841.56;;;-4.53;86.82
62849;BME280;48941;49.516;8.286;2022-12-18T09:54:20;101841.53;;;-4.54;86.55
62849;BME280;48941;49.516;8.286;2022-12-18T09:56:49;101848.44;;;-4.60;87.29
62849;BME280;48941;49.516;8.286;2022-12-18T09:59:24;101834.56;;;-4.60;87.03
62849;BME280;48941;49.516;8.286;2022-12-18T10:01:54;101834.56;;;-4.65;88.23
62849;BME280;48941;49.516;8.286;2022-12-18T10:04:22;101830.22;;;-4.67;88.61
62849;BME280;48941;49.516;8.286;2022-12-18T10:06:55;101826.75;;;-4.65;88.67
62849;BME280;48941;49.516;8.286;2022-12-18T10:09:38;101829.31;;;-4.68;89.11
62849;BME280;48941;49.516;8.286;2022-12-18T10:12:13;101822.44;;;-4.58;89.40
62849;BME280;48941;49.516;8.286;2022-12-18T10:14:50;101831.06;;;-4.64;88.69
62849;BME280;48941;49.516;8.286;2022-12-18T10:17:27;101831.88;;;-4.75;89.95
62849;BME280;48941;49.516;8.286;2022-12-18T10:20:01;101827.56;;;-4.76;89.67
62849;BME280;48941;49.516;8.286;2022-12-18T10:22:38;101827.50;;;-4.83;89.92
62849;BME280;48941;49.516;8.286;2022-12-18T10:25:18;101826.63;;;-4.86;89.67
62849;BME280;48941;49.516;8.286;2022-12-18T10:27:48;101827.63;;;-4.64;89.87
62849;BME280;48941;49.516;8.286;2022-12-18T10:30:21;101809.41;;;-4.69;89.63
62849;BME280;48941;49.516;8.286;2022-12-18T10:32:49;101797.28;;;-4.65;89.95
62849;BME280;48941;49.516;8.286;2022-12-18T10:35:20;101797.28;;;-4.67;89.90
62849;BME280;48941;49.516;8.286;2022-12-18T10:38:06;101796.44;;;-4.61;89.01
62849;BME280;48941;49.516;8.286;2022-12-18T10:40:49;101802.50;;;-4.61;89.01
62849;BME280;48941;49.516;8.286;2022-12-18T10:43:20;101797.31;;;-4.56;88.37
62849;BME280;48941;49.516;8.286;2022-12-18T10:46:02;101797.31;;;-4.51;88.01
62849;BME280;48941;49.516;8.286;2022-12-18T10:48:32;101800.72;;;-4.71;88.07
62849;BME280;48941;49.516;8.286;2022-12-18T10:51:00;101805.88;;;-4.77;89.58
62849;BME280;48941;49.516;8.286;2022-12-18T10:53:40;101806.75;;;-4.75;89.24
62849;BME280;48941;49.516;8.286;2022-12-18T10:56:10;101794.59;;;-4.77;89.53
62849;BME280;48941;49.516;8.286;2022-12-18T10:58:39;101797.25;;;-4.73;89.55
62849;BME280;48941;49.516;8.286;2022-12-18T11:01:10;101808.56;;;-4.62;89.39
62849;BME280;48941;49.516;8.286;2022-12-18T11:03:40;101813.72;;;-4.68;89.60
62849;BME280;48941;49.516;8.286;2022-12-18T11:06:10;101818.97;;;-4.55;89.57
62849;BME280;48941;49.516;8.286;2022-12-18T11:08:39;101820.78;;;-4.45;89.12
62849;BME280;48941;49.516;8.286;2022-12-18T11:11:19;101805.16;;;-4.47;89.40
62849;BME280;48941;49.516;8.286;2022-12-18T11:13:58;101806.88;;;-4.55;88.88
62849;BME280;48941;49.516;8.286;2022-12-18T11:16:28;101802.53;;;-4.54;88.69
62849;BME280;48941;49.516;8.286;2022-12-18T11:19:21;101802.53;;;-4.56;88.74
62849;BME280;48941;49.516;8.286;2022-12-18T11:21:51;101798.22;;;-4.51;88.65
62849;BME280;48941;49.516;8.286;2022-12-18T11:24:23;101799.06;;;-4.55;88.76
62849;BME280;48941;49.516;8.286;2022-12-18T11:26:54;101799.84;;;-4.70;88.79
62849;BME280;48941;49.516;8.286;2022-12-18T11:29:28;101799.88;;;-4.65;89.41
62849;BME280;48941;49.516;8.286;2022-12-18T11:32:25;101793.84;;;-4.53;89.84
62849;BME280;48941;49.516;8.286;2022-12-18T11:35:00;101788.72;;;-4.41;89.03
62849;BME280;48941;49.516;8.286;2022-12-18T11:37:29;101787.00;;;-4.39;89.06
62849;BME280;48941;49.516;8.286;2022-12-18T11:40:02;101787.00;;;-4.36;88.84
62849;BME280;48941;49.516;8.286;2022-12-18T11:42:35;101775.75;;;-4.29;89.02
62849;BME280;48941;49.516;8.286;2022-12-18T11:45:26;101782.78;;;-4.05;88.34
62849;BME280;48941;49.516;8.286;2022-12-18T11:48:01;101789.69;;;-4.04;87.68
62849;BME280;48941;49.516;8.286;2022-12-18T11:50:41;101790.56;;;-4.05;88.04
62849;BME280;48941;49.516;8.286;2022-12-18T11:53:12;101776.69;;;-4.01;88.39
62849;BME280;48941;49.516;8.286;2022-12-18T11:55:48;101779.31;;;-3.94;88.15
62849;BME280;48941;49.516;8.286;2022-12-18T11:58:29;101767.19;;;-3.86;87.52
62849;BME280;48941;49.516;8.286;2022-12-18T12:01:07;101759.38;;;-3.89;87.67
62849;BME280;48941;49.516;8.286;2022-12-18T12:06:39;101766.34;;;-3.71;87.37
62849;BME280;48941;49.516;8.286;2022-12-18T12:09:14;101758.53;;;-3.71;87.41
62849;BME280;48941;49.516;8.286;2022-12-18T12:11:58;101754.19;;;-3.58;86.81
62849;BME280;48941;49.516;8.286;2022-12-18T12:14:41;101752.44;;;-3.67;86.95
62849;BME280;48941;49.516;8.286;2022-12-18T12:17:16;101753.28;;;-3.64;87.26
62849;BME280;48941;49.516;8.286;2022-12-18T12:19:51;101768.94;;;-3.59;87.21
62849;BME280;48941;49.516;8.286;2022-12-18T12:22:26;101758.50;;;-3.56;86.98
62849;BME280;48941;49.516;8.286;2022-12-18T12:25:13;101766.34;;;-3.41;86.38
62849;BME280;48941;49.516;8.286;2022-12-18T12:27:54;101759.41;;;-3.37;86.26
62849;BME280;48941;49.516;8.286;2022-12-18T12:30:31;101754.19;;;-3.35;85.92
62849;BME280;48941;49.516;8.286;2022-12-18T12:33:14;101751.56;;;-3.46;85.69
62849;BME280;48941;49.516;8.286;2022-12-18T12:35:52;101752.44;;;-3.38;85.58
62849;BME280;48941;49.516;8.286;2022-12-18T12:38:27;101738.56;;;-3.35;85.18
62849;BME280;48941;49.516;8.286;2022-12-18T12:40:59;101739.41;;;-3.40;85.95
62849;BME280;48941;49.516;8.286;2022-12-18T12:43:34;101742.00;;;-3.38;86.15
62849;BME280;48941;49.516;8.286;2022-12-18T12:46:10;101737.66;;;-3.36;86.28
62849;BME280;48941;49.516;8.286;2022-12-18T12:48:42;101747.22;;;-3.32;85.91
62849;BME280;48941;49.516;8.286;2022-12-18T12:51:16;101739.41;;;-3.32;86.90
62849;BME280;48941;49.516;8.286;2022-12-18T12:53:46;101730.69;;;-3.22;86.29
62849;BME280;48941;49.516;8.286;2022-12-18T12:56:15;101729.84;;;-3.19;86.18
62849;BME280;48941;49.516;8.286;2022-12-18T12:58:52;101720.25;;;-3.09;85.46
62849;BME280;48941;49.516;8.286;2022-12-18T13:01:30;101709.81;;;-3.12;85.78
62849;BME280;48941;49.516;8.286;2022-12-18T13:04:07;101704.63;;;-3.12;86.22
62849;BME280;48941;49.516;8.286;2022-12-18T13:06:42;101703.75;;;-3.16;86.32
62849;BME280;48941;49.516;8.286;2022-12-18T13:09:11;101705.50;;;-3.20;86.97
62849;BME280;48941;49.516;8.286;2022-12-18T13:11:41;101704.59;;;-3.05;85.85
62849;BME280;48941;49.516;8.286;2022-12-18T13:14:29;101706.34;;;-3.10;86.17